createdAt,value
2018-04-19T00:00:03.334Z,12.96
2018-04-19T00:00:07.442Z,12.95
2018-04-19T00:00:11.719Z,12.92
2018-04-19T00:00:15.931Z,12.91
2018-04-19T00:00:20.141Z,12.96
2018-04-19T00:00:24.469Z,12.96
2018-04-19T00:00:28.787Z,12.95
2018-04-19T00:00:33.008Z,12.95
2018-04-19T00:00:37.216Z,12.95
2018-04-19T00:00:41.455Z,12.99
2018-04-19T00:00:45.773Z,12.98
2018-04-19T00:00:49.988Z,12.96
2018-04-19T00:00:54.130Z,12.94
2018-04-19T00:00:58.232Z,13.01
2018-04-19T00:01:02.337Z,12.98
2018-04-19T00:01:06.114Z,12.99
2018-04-19T00:01:09.998Z,12.94
2018-04-19T00:01:14.113Z,12.96
2018-04-19T00:01:18.323Z,13.04
2018-04-19T00:01:22.434Z,12.98
2018-04-19T00:01:26.654Z,12.98
2018-04-19T00:01:30.861Z,12.95
2018-04-19T00:01:35.200Z,12.99
2018-04-19T00:01:39.302Z,13.07
2018-04-19T00:01:43.526Z,12.98
2018-04-19T00:01:47.858Z,12.94
2018-04-19T00:01:51.855Z,12.96
2018-04-19T00:01:56.063Z,13.01
2018-04-19T00:02:00.167Z,13.04
2018-04-19T00:02:04.267Z,13.04
2018-04-19T00:02:08.377Z,12.99
2018-04-19T00:02:12.586Z,12.95
2018-04-19T00:02:16.912Z,12.96
2018-04-19T00:02:21.132Z,13.01
2018-04-19T00:02:25.144Z,12.95
2018-04-19T00:02:29.251Z,13.03
2018-04-19T00:02:33.465Z,12.98
2018-04-19T00:02:37.570Z,12.99
2018-04-19T00:02:41.890Z,12.99
2018-04-19T00:02:46.106Z,13.01
2018-04-19T00:02:50.334Z,13.01
2018-04-19T00:02:54.649Z,12.96
2018-04-19T00:02:58.867Z,13.06
2018-04-19T00:03:03.279Z,13.06
2018-04-19T00:03:07.380Z,12.99
2018-04-19T00:03:11.697Z,13.1
2018-04-19T00:03:16.014Z,13.07
2018-04-19T00:03:20.146Z,12.99
2018-04-19T00:03:24.366Z,12.96
2018-04-19T00:03:28.585Z,13.03
2018-04-19T00:03:32.689Z,13.04
2018-04-19T00:03:37.014Z,13.09
2018-04-19T00:03:41.339Z,12.99
2018-04-19T00:03:45.557Z,12.99
2018-04-19T00:03:49.889Z,13.13
2018-04-19T00:03:54.098Z,13.06
2018-04-19T00:03:58.306Z,12.99
2018-04-19T00:04:02.297Z,13.03
2018-04-19T00:04:06.402Z,13.06
2018-04-19T00:04:10.507Z,13.03
2018-04-19T00:04:14.613Z,13.07
2018-04-19T00:04:18.934Z,13.1
2018-04-19T00:04:23.035Z,13.13
2018-04-19T00:04:27.050Z,13.12
2018-04-19T00:04:31.264Z,13.03
2018-04-19T00:04:35.363Z,13.13
2018-04-19T00:04:39.571Z,13.07
2018-04-19T00:04:43.890Z,13.12
2018-04-19T00:04:48.202Z,13.04
2018-04-19T00:04:52.466Z,13.13
2018-04-19T00:04:56.563Z,13.1
2018-04-19T00:05:00.771Z,13.09
2018-04-19T00:05:05.029Z,13.12
2018-04-19T00:05:09.364Z,13.12
2018-04-19T00:05:13.468Z,13.13
2018-04-19T00:05:17.741Z,13.13
2018-04-19T00:05:22.061Z,13.14
2018-04-19T00:05:26.053Z,13.12
2018-04-19T00:05:30.151Z,13.07
2018-04-19T00:05:34.380Z,13.16
2018-04-19T00:05:38.479Z,13.13
2018-04-19T00:05:42.795Z,13.12
2018-04-19T00:05:47.116Z,13.12
2018-04-19T00:05:51.222Z,13.09
2018-04-19T00:05:55.541Z,13.14
2018-04-19T00:05:59.655Z,13.16
2018-04-19T00:06:03.905Z,13.1
2018-04-19T00:06:08.009Z,13.09
2018-04-19T00:06:12.327Z,13.14
2018-04-19T00:06:16.653Z,13.14
2018-04-19T00:06:20.756Z,13.17
2018-04-19T00:06:24.754Z,13.17
2018-04-19T00:06:28.856Z,13.14
2018-04-19T00:06:33.063Z,13.16
2018-04-19T00:06:37.161Z,13.17
2018-04-19T00:06:41.484Z,13.12
2018-04-19T00:06:45.684Z,13.14
2018-04-19T00:06:50.001Z,13.13
2018-04-19T00:06:54.209Z,13.12
2018-04-19T00:06:58.304Z,13.13
2018-04-19T00:07:02.616Z,13.16
2018-04-19T00:07:06.617Z,13.1
2018-04-19T00:07:10.836Z,13.1
2018-04-19T00:07:14.931Z,13.14
2018-04-19T00:07:19.029Z,13.14
2018-04-19T00:07:23.236Z,13.14
2018-04-19T00:07:27.441Z,13.1
2018-04-19T00:07:31.653Z,13.12
2018-04-19T00:07:35.759Z,13.19
2018-04-19T00:07:40.083Z,13.22
2018-04-19T00:07:44.291Z,13.17
2018-04-19T00:07:48.497Z,13.14
2018-04-19T00:07:52.610Z,13.16
2018-04-19T00:07:56.713Z,13.16
2018-04-19T00:08:00.816Z,13.14
2018-04-19T00:08:05.022Z,13.17
2018-04-19T00:08:09.125Z,13.16
2018-04-19T00:08:13.435Z,13.21
2018-04-19T00:08:17.703Z,13.27
2018-04-19T00:08:21.693Z,13.17
2018-04-19T00:08:26.026Z,13.17
2018-04-19T00:08:30.230Z,13.22
2018-04-19T00:08:34.440Z,13.19
2018-04-19T00:08:38.649Z,13.25
2018-04-19T00:08:42.859Z,13.19
2018-04-19T00:08:46.966Z,13.21
2018-04-19T00:08:51.064Z,13.24
2018-04-19T00:08:55.164Z,13.27
2018-04-19T00:08:59.377Z,13.14
2018-04-19T00:09:03.377Z,13.28
2018-04-19T00:09:07.585Z,13.25
2018-04-19T00:09:11.902Z,13.16
2018-04-19T00:09:16.114Z,13.17
2018-04-19T00:09:20.337Z,13.14
2018-04-19T00:09:24.445Z,13.19
2018-04-19T00:09:28.351Z,13.24
2018-04-19T00:09:32.457Z,13.19
2018-04-19T00:09:36.558Z,13.22
2018-04-19T00:09:40.773Z,13.28
2018-04-19T00:09:45.105Z,13.17
2018-04-19T00:09:49.204Z,13.28
2018-04-19T00:09:53.517Z,13.19
2018-04-19T00:09:57.840Z,13.17
2018-04-19T00:10:01.951Z,13.19
2018-04-19T00:10:06.066Z,13.28
2018-04-19T00:10:10.180Z,13.19
2018-04-19T00:10:14.281Z,13.25
2018-04-19T00:10:18.495Z,13.28
2018-04-19T00:10:22.601Z,13.22
2018-04-19T00:10:26.814Z,13.22
2018-04-19T00:10:31.028Z,13.31
2018-04-19T00:10:35.138Z,13.25
2018-04-19T00:10:39.133Z,13.17
2018-04-19T00:10:43.234Z,13.24
2018-04-19T00:10:47.562Z,13.24
2018-04-19T00:10:51.672Z,13.24
2018-04-19T00:10:55.884Z,13.19
2018-04-19T00:11:00.200Z,13.27
2018-04-19T00:11:04.098Z,13.19
2018-04-19T00:11:08.306Z,13.25
2018-04-19T00:11:12.296Z,13.28
2018-04-19T00:11:16.612Z,13.28
2018-04-19T00:11:20.834Z,13.24
2018-04-19T00:11:25.046Z,13.27
2018-04-19T00:11:29.360Z,13.22
2018-04-19T00:11:33.674Z,13.25
2018-04-19T00:11:37.773Z,13.25
2018-04-19T00:11:41.925Z,13.14
2018-04-19T00:11:45.825Z,13.27
2018-04-19T00:11:50.101Z,13.24
2018-04-19T00:11:54.439Z,13.19
2018-04-19T00:11:58.886Z,13.27
2018-04-19T00:12:02.995Z,13.22
2018-04-19T00:12:06.999Z,13.19
2018-04-19T00:12:11.101Z,13.29
2018-04-19T00:12:15.421Z,13.25
2018-04-19T00:12:19.632Z,13.28
2018-04-19T00:12:23.728Z,13.24
2018-04-19T00:12:28.096Z,13.28
2018-04-19T00:12:32.307Z,13.24
2018-04-19T00:12:36.635Z,13.25
2018-04-19T00:12:40.746Z,13.24
2018-04-19T00:12:45.065Z,13.22
2018-04-19T00:12:49.056Z,13.21
2018-04-19T00:12:53.265Z,13.27
2018-04-19T00:12:57.253Z,13.27
2018-04-19T00:13:01.463Z,13.28
2018-04-19T00:13:05.934Z,13.25
2018-04-19T00:13:09.925Z,13.24
2018-04-19T00:13:14.137Z,13.25
2018-04-19T00:13:18.267Z,13.19
2018-04-19T00:13:22.366Z,13.21
2018-04-19T00:13:26.569Z,13.28
2018-04-19T00:13:30.774Z,13.29
2018-04-19T00:13:34.867Z,13.27
2018-04-19T00:13:39.191Z,13.25
2018-04-19T00:13:43.292Z,13.22
2018-04-19T00:13:47.400Z,13.25
2018-04-19T00:13:51.720Z,13.25
2018-04-19T00:13:56.044Z,13.22
2018-04-19T00:14:00.358Z,13.31
2018-04-19T00:14:04.390Z,13.27
2018-04-19T00:14:08.604Z,13.27
2018-04-19T00:14:12.712Z,13.27
2018-04-19T00:14:17.031Z,13.27
2018-04-19T00:14:21.268Z,13.29
2018-04-19T00:14:25.480Z,13.31
2018-04-19T00:14:29.587Z,13.27
2018-04-19T00:14:33.580Z,13.36
2018-04-19T00:14:37.808Z,13.22
2018-04-19T00:14:42.021Z,13.32
2018-04-19T00:14:46.121Z,13.27
2018-04-19T00:14:50.017Z,13.35
2018-04-19T00:14:54.229Z,13.32
2018-04-19T00:14:58.583Z,13.35
2018-04-19T00:15:02.589Z,13.36
2018-04-19T00:15:06.911Z,13.31
2018-04-19T00:15:11.010Z,13.35
2018-04-19T00:15:15.330Z,13.32
2018-04-19T00:15:19.649Z,13.27
2018-04-19T00:15:23.752Z,13.32
2018-04-19T00:15:28.062Z,13.29
2018-04-19T00:15:32.419Z,13.31
2018-04-19T00:15:36.629Z,13.36
2018-04-19T00:15:40.840Z,13.35
2018-04-19T00:15:45.059Z,13.38
2018-04-19T00:15:49.268Z,13.31
2018-04-19T00:15:53.367Z,13.29
2018-04-19T00:15:57.682Z,13.35
2018-04-19T00:16:02.011Z,13.32
2018-04-19T00:16:05.899Z,13.35
2018-04-19T00:16:10.109Z,13.35
2018-04-19T00:16:14.319Z,13.38
2018-04-19T00:16:18.534Z,13.29
2018-04-19T00:16:22.757Z,13.35
2018-04-19T00:16:27.025Z,13.36
2018-04-19T00:16:31.133Z,13.36
2018-04-19T00:16:35.235Z,13.36
2018-04-19T00:16:39.444Z,13.46
2018-04-19T00:16:43.445Z,13.36
2018-04-19T00:16:47.772Z,13.32
2018-04-19T00:16:51.875Z,13.29
2018-04-19T00:16:55.974Z,13.38
2018-04-19T00:17:00.080Z,13.38
2018-04-19T00:17:04.288Z,13.35
2018-04-19T00:17:08.621Z,13.36
2018-04-19T00:17:12.724Z,13.44
2018-04-19T00:17:16.939Z,13.38
2018-04-19T00:17:21.274Z,13.38
2018-04-19T00:17:25.603Z,13.35
2018-04-19T00:17:29.708Z,13.28
2018-04-19T00:17:33.920Z,13.35
2018-04-19T00:17:38.133Z,13.32
2018-04-19T00:17:42.237Z,13.39
2018-04-19T00:17:46.444Z,13.38
2018-04-19T00:17:50.545Z,13.35
2018-04-19T00:17:54.648Z,13.35
2018-04-19T00:17:58.851Z,13.35
2018-04-19T00:18:02.842Z,13.29
2018-04-19T00:18:06.952Z,13.43
2018-04-19T00:18:11.057Z,13.43
2018-04-19T00:18:15.159Z,13.38
2018-04-19T00:18:19.485Z,13.38
2018-04-19T00:18:23.863Z,13.27
2018-04-19T00:18:28.071Z,13.36
2018-04-19T00:18:32.181Z,13.38
2018-04-19T00:18:36.284Z,13.38
2018-04-19T00:18:40.491Z,13.39
2018-04-19T00:18:44.693Z,13.28
2018-04-19T00:18:48.731Z,13.43
2018-04-19T00:18:53.056Z,13.29
2018-04-19T00:18:57.270Z,13.39
2018-04-19T00:19:01.380Z,13.35
2018-04-19T00:19:05.587Z,13.41
2018-04-19T00:19:09.798Z,13.36
2018-04-19T00:19:14.013Z,13.29
2018-04-19T00:19:18.234Z,13.31
2018-04-19T00:19:22.554Z,13.41
2018-04-19T00:19:26.438Z,13.38
2018-04-19T00:19:30.318Z,13.41
2018-04-19T00:19:34.647Z,13.38
2018-04-19T00:19:38.860Z,13.29
2018-04-19T00:19:43.077Z,13.29
2018-04-19T00:19:47.400Z,13.41
2018-04-19T00:19:51.614Z,13.41
2018-04-19T00:19:55.712Z,13.36
2018-04-19T00:20:00.033Z,13.43
2018-04-19T00:20:03.971Z,13.36
2018-04-19T00:20:08.292Z,13.43
2018-04-19T00:20:12.499Z,13.43
2018-04-19T00:20:16.824Z,13.39
2018-04-19T00:20:21.140Z,13.46
2018-04-19T00:20:25.238Z,13.41
2018-04-19T00:20:29.458Z,13.39
2018-04-19T00:20:33.788Z,13.41
2018-04-19T00:20:38.038Z,13.39
2018-04-19T00:20:42.237Z,13.28
2018-04-19T00:20:46.680Z,13.41
2018-04-19T00:20:50.892Z,13.39
2018-04-19T00:20:55.000Z,13.41
2018-04-19T00:20:59.099Z,13.41
2018-04-19T00:21:03.311Z,13.38
2018-04-19T00:21:07.527Z,13.43
2018-04-19T00:21:11.733Z,13.43
2018-04-19T00:21:15.882Z,13.43
2018-04-19T00:21:20.195Z,13.46
2018-04-19T00:21:24.507Z,13.44
2018-04-19T00:21:28.825Z,13.43
2018-04-19T00:21:32.815Z,13.39
2018-04-19T00:21:37.020Z,13.39
2018-04-19T00:21:41.335Z,13.39
2018-04-19T00:21:45.654Z,13.38
2018-04-19T00:21:49.757Z,13.41
2018-04-19T00:21:53.753Z,13.43
2018-04-19T00:21:57.976Z,13.44
2018-04-19T00:22:02.336Z,13.44
2018-04-19T00:22:06.545Z,13.41
2018-04-19T00:22:10.643Z,13.39
2018-04-19T00:22:14.963Z,13.43
2018-04-19T00:22:19.063Z,13.38
2018-04-19T00:22:23.163Z,13.48
2018-04-19T00:22:27.488Z,13.39
2018-04-19T00:22:31.593Z,13.39
2018-04-19T00:22:35.929Z,13.31
2018-04-19T00:22:40.143Z,13.43
2018-04-19T00:22:44.456Z,13.39
2018-04-19T00:22:48.452Z,13.46
2018-04-19T00:22:52.705Z,13.43
2018-04-19T00:22:56.912Z,13.35
2018-04-19T00:23:01.011Z,13.43
2018-04-19T00:23:05.111Z,13.44
2018-04-19T00:23:09.107Z,13.44
2018-04-19T00:23:13.205Z,13.43
2018-04-19T00:23:17.089Z,13.44
2018-04-19T00:23:21.402Z,13.39
2018-04-19T00:23:25.716Z,13.36
2018-04-19T00:23:29.924Z,13.44
2018-04-19T00:23:34.254Z,13.41
2018-04-19T00:23:38.467Z,13.43
2018-04-19T00:23:42.577Z,13.44
2018-04-19T00:23:46.783Z,13.35
2018-04-19T00:23:50.883Z,13.41
2018-04-19T00:23:55.214Z,13.38
2018-04-19T00:23:59.540Z,13.46
2018-04-19T00:24:03.798Z,13.36
2018-04-19T00:24:07.905Z,13.43
2018-04-19T00:24:12.008Z,13.36
2018-04-19T00:24:16.115Z,13.31
2018-04-19T00:24:20.430Z,13.43
2018-04-19T00:24:24.648Z,13.41
2018-04-19T00:24:28.861Z,13.48
2018-04-19T00:24:33.069Z,13.39
2018-04-19T00:24:37.171Z,13.43
2018-04-19T00:24:41.270Z,13.44
2018-04-19T00:24:45.595Z,13.36
2018-04-19T00:24:49.937Z,13.39
2018-04-19T00:24:54.252Z,13.43
2018-04-19T00:24:58.462Z,13.39
2018-04-19T00:25:02.670Z,13.44
2018-04-19T00:25:06.877Z,13.35
2018-04-19T00:25:11.087Z,13.38
2018-04-19T00:25:15.407Z,13.36
2018-04-19T00:25:19.619Z,13.32
2018-04-19T00:25:23.828Z,13.43
2018-04-19T00:25:28.034Z,13.32
2018-04-19T00:25:32.361Z,13.39
2018-04-19T00:25:36.468Z,13.38
2018-04-19T00:25:40.680Z,13.43
2018-04-19T00:25:44.890Z,13.41
2018-04-19T00:25:48.993Z,13.32
2018-04-19T00:25:53.214Z,13.39
2018-04-19T00:25:57.531Z,13.39
2018-04-19T00:26:01.869Z,13.38
2018-04-19T00:26:06.190Z,13.41
2018-04-19T00:26:10.401Z,13.39
2018-04-19T00:26:14.734Z,13.41
2018-04-19T00:26:18.836Z,13.43
2018-04-19T00:26:23.212Z,13.47
2018-04-19T00:26:27.536Z,13.31
2018-04-19T00:26:31.859Z,13.41
2018-04-19T00:26:36.066Z,13.35
2018-04-19T00:26:40.285Z,13.43
2018-04-19T00:26:44.511Z,13.43
2018-04-19T00:26:48.732Z,13.41
2018-04-19T00:26:52.841Z,13.41
2018-04-19T00:26:57.049Z,13.41
2018-04-19T00:27:01.163Z,13.41
2018-04-19T00:27:05.512Z,13.46
2018-04-19T00:27:09.734Z,13.27
2018-04-19T00:27:13.940Z,13.47
2018-04-19T00:27:17.935Z,13.43
2018-04-19T00:27:22.049Z,13.43
2018-04-19T00:27:26.366Z,13.35
2018-04-19T00:27:30.477Z,13.29
2018-04-19T00:27:34.802Z,13.43
2018-04-19T00:27:38.913Z,13.43
2018-04-19T00:27:43.232Z,13.41
2018-04-19T00:27:47.445Z,13.47
2018-04-19T00:27:51.542Z,13.38
2018-04-19T00:27:55.683Z,13.31
2018-04-19T00:27:59.897Z,13.35
2018-04-19T00:28:03.891Z,13.44
2018-04-19T00:28:08.094Z,13.46
2018-04-19T00:28:12.307Z,13.46
2018-04-19T00:28:16.638Z,13.39
2018-04-19T00:28:20.960Z,13.39
2018-04-19T00:28:25.295Z,13.39
2018-04-19T00:28:29.399Z,13.31
2018-04-19T00:28:33.393Z,13.32
2018-04-19T00:28:37.718Z,13.43
2018-04-19T00:28:41.828Z,13.43
2018-04-19T00:28:45.927Z,13.39
2018-04-19T00:28:50.254Z,13.44
2018-04-19T00:28:54.354Z,13.39
2018-04-19T00:28:58.561Z,13.31
2018-04-19T00:29:02.664Z,13.39
2018-04-19T00:29:06.981Z,13.43
2018-04-19T00:29:11.095Z,13.41
2018-04-19T00:29:15.194Z,13.47
2018-04-19T00:29:19.401Z,13.35
2018-04-19T00:29:23.600Z,13.41
2018-04-19T00:29:27.483Z,13.31
2018-04-19T00:29:31.800Z,13.38
2018-04-19T00:29:36.017Z,13.46
2018-04-19T00:29:40.268Z,13.44
2018-04-19T00:29:44.486Z,13.38
2018-04-19T00:29:48.805Z,13.43
2018-04-19T00:29:53.017Z,13.31
2018-04-19T00:29:57.010Z,13.43
2018-04-19T00:30:01.223Z,13.31
2018-04-19T00:30:05.605Z,13.43
2018-04-19T00:30:09.716Z,13.46
2018-04-19T00:30:13.822Z,13.28
2018-04-19T00:30:17.930Z,13.38
2018-04-19T00:30:22.254Z,13.43
2018-04-19T00:30:26.569Z,13.41
2018-04-19T00:30:30.787Z,13.39
2018-04-19T00:30:34.890Z,13.39
2018-04-19T00:30:39.109Z,13.41
2018-04-19T00:30:43.324Z,13.35
2018-04-19T00:30:47.543Z,13.46
2018-04-19T00:30:51.865Z,13.43
2018-04-19T00:30:56.187Z,13.43
2018-04-19T00:31:00.177Z,13.36
2018-04-19T00:31:04.175Z,13.31
2018-04-19T00:31:08.392Z,13.39
2018-04-19T00:31:12.495Z,13.39
2018-04-19T00:31:16.711Z,13.28
2018-04-19T00:31:20.813Z,13.29
2018-04-19T00:31:25.139Z,13.41
2018-04-19T00:31:29.457Z,13.35
2018-04-19T00:31:33.667Z,13.43
2018-04-19T00:31:37.876Z,13.35
2018-04-19T00:31:41.988Z,13.47
2018-04-19T00:31:46.206Z,13.38
2018-04-19T00:31:50.520Z,13.43
2018-04-19T00:31:54.620Z,13.44
2018-04-19T00:31:58.827Z,13.46
2018-04-19T00:32:02.937Z,13.41
2018-04-19T00:32:07.147Z,13.46
2018-04-19T00:32:11.147Z,13.39
2018-04-19T00:32:15.355Z,13.43
2018-04-19T00:32:19.568Z,13.36
2018-04-19T00:32:23.890Z,13.44
2018-04-19T00:32:28.093Z,13.46
2018-04-19T00:32:32.299Z,13.35
2018-04-19T00:32:36.513Z,13.29
2018-04-19T00:32:40.719Z,13.41
2018-04-19T00:32:44.834Z,13.39
2018-04-19T00:32:49.048Z,13.43
2018-04-19T00:32:53.259Z,13.36
2018-04-19T00:32:57.469Z,13.41
2018-04-19T00:33:01.466Z,13.46
2018-04-19T00:33:05.466Z,13.43
2018-04-19T00:33:09.676Z,13.28
2018-04-19T00:33:13.671Z,13.41
2018-04-19T00:33:17.789Z,13.28
2018-04-19T00:33:21.891Z,13.46
2018-04-19T00:33:26.223Z,13.39
2018-04-19T00:33:30.326Z,13.43
2018-04-19T00:33:34.433Z,13.43
2018-04-19T00:33:38.647Z,13.38
2018-04-19T00:33:42.862Z,13.31
2018-04-19T00:33:47.086Z,13.43
2018-04-19T00:33:51.297Z,13.35
2018-04-19T00:33:55.613Z,13.41
2018-04-19T00:33:59.871Z,13.43
2018-04-19T00:34:03.867Z,13.48
2018-04-19T00:34:08.194Z,13.32
2018-04-19T00:34:12.234Z,13.43
2018-04-19T00:34:16.437Z,13.41
2018-04-19T00:34:20.644Z,13.47
2018-04-19T00:34:25.023Z,13.31
2018-04-19T00:34:29.358Z,13.38
2018-04-19T00:34:33.834Z,13.39
2018-04-19T00:34:38.044Z,13.47
2018-04-19T00:34:42.156Z,13.36
2018-04-19T00:34:46.478Z,13.39
2018-04-19T00:34:50.692Z,13.43
2018-04-19T00:34:55.010Z,13.47
2018-04-19T00:34:59.321Z,13.38
2018-04-19T00:35:03.437Z,13.41
2018-04-19T00:35:07.756Z,13.35
2018-04-19T00:35:12.077Z,13.36
2018-04-19T00:35:16.409Z,13.47
2018-04-19T00:35:20.726Z,13.44
2018-04-19T00:35:25.050Z,13.39
2018-04-19T00:35:29.266Z,13.41
2018-04-19T00:35:33.363Z,13.39
2018-04-19T00:35:37.566Z,13.47
2018-04-19T00:35:41.784Z,13.43
2018-04-19T00:35:46.103Z,13.32
2018-04-19T00:35:50.316Z,13.44
2018-04-19T00:35:54.635Z,13.41
2018-04-19T00:35:58.863Z,13.41
2018-04-19T00:36:03.192Z,13.41
2018-04-19T00:36:07.427Z,13.36
2018-04-19T00:36:11.642Z,13.44
2018-04-19T00:36:15.855Z,13.48
2018-04-19T00:36:20.074Z,13.27
2018-04-19T00:36:24.393Z,13.35
2018-04-19T00:36:28.499Z,13.47
2018-04-19T00:36:32.708Z,13.44
2018-04-19T00:36:36.915Z,13.41
2018-04-19T00:36:41.123Z,13.44
2018-04-19T00:36:45.336Z,13.31
2018-04-19T00:36:49.543Z,13.38
2018-04-19T00:36:53.868Z,13.41
2018-04-19T00:36:58.080Z,13.31
2018-04-19T00:37:02.336Z,13.28
2018-04-19T00:37:06.337Z,13.44
2018-04-19T00:37:10.439Z,13.44
2018-04-19T00:37:14.764Z,13.38
2018-04-19T00:37:18.983Z,13.38
2018-04-19T00:37:23.302Z,13.41
2018-04-19T00:37:27.514Z,13.39
2018-04-19T00:37:31.833Z,13.41
2018-04-19T00:37:36.042Z,13.32
2018-04-19T00:37:40.248Z,13.43
2018-04-19T00:37:44.238Z,13.44
2018-04-19T00:37:48.448Z,13.41
2018-04-19T00:37:52.663Z,13.39
2018-04-19T00:37:56.657Z,13.39
2018-04-19T00:38:00.868Z,13.41
2018-04-19T00:38:04.866Z,13.38
2018-04-19T00:38:09.188Z,13.39
2018-04-19T00:38:13.395Z,13.38
2018-04-19T00:38:17.606Z,13.36
2018-04-19T00:38:21.718Z,13.35
2018-04-19T00:38:25.927Z,13.43
2018-04-19T00:38:30.143Z,13.38
2018-04-19T00:38:34.355Z,13.43
2018-04-19T00:38:38.671Z,13.31
2018-04-19T00:38:42.989Z,13.35
2018-04-19T00:38:47.201Z,13.36
2018-04-19T00:38:51.194Z,13.43
2018-04-19T00:38:55.519Z,13.28
2018-04-19T00:38:59.735Z,13.27
2018-04-19T00:39:03.888Z,13.43
2018-04-19T00:39:07.884Z,13.38
2018-04-19T00:39:12.098Z,13.43
2018-04-19T00:39:16.320Z,13.41
2018-04-19T00:39:20.531Z,13.38
2018-04-19T00:39:24.630Z,13.38
2018-04-19T00:39:28.731Z,13.39
2018-04-19T00:39:32.832Z,13.32
2018-04-19T00:39:36.828Z,13.43
2018-04-19T00:39:40.925Z,13.39
2018-04-19T00:39:45.257Z,13.44
2018-04-19T00:39:49.363Z,13.38
2018-04-19T00:39:53.581Z,13.41
2018-04-19T00:39:57.898Z,13.46
2018-04-19T00:40:02.109Z,13.44
2018-04-19T00:40:06.104Z,13.48
2018-04-19T00:40:10.313Z,13.36
2018-04-19T00:40:14.300Z,13.48
2018-04-19T00:40:18.517Z,13.43
2018-04-19T00:40:22.735Z,13.47
2018-04-19T00:40:26.944Z,13.43
2018-04-19T00:40:31.172Z,13.31
2018-04-19T00:40:35.273Z,13.44
2018-04-19T00:40:39.370Z,13.41
2018-04-19T00:40:43.700Z,13.43
2018-04-19T00:40:47.911Z,13.38
2018-04-19T00:40:52.226Z,13.36
2018-04-19T00:40:56.321Z,13.43
2018-04-19T00:41:00.648Z,13.41
2018-04-19T00:41:04.759Z,13.39
2018-04-19T00:41:08.971Z,13.44
2018-04-19T00:41:13.295Z,13.35
2018-04-19T00:41:17.524Z,13.41
2018-04-19T00:41:21.738Z,13.39
2018-04-19T00:41:25.945Z,13.39
2018-04-19T00:41:30.157Z,13.36
2018-04-19T00:41:34.486Z,13.41
2018-04-19T00:41:38.692Z,13.43
2018-04-19T00:41:42.899Z,13.36
2018-04-19T00:41:47.002Z,13.39
2018-04-19T00:41:51.319Z,13.47
2018-04-19T00:41:55.528Z,13.39
2018-04-19T00:41:59.856Z,13.44
2018-04-19T00:42:03.740Z,13.39
2018-04-19T00:42:07.734Z,13.43
2018-04-19T00:42:11.940Z,13.39
2018-04-19T00:42:16.150Z,13.29
2018-04-19T00:42:20.250Z,13.43
2018-04-19T00:42:24.382Z,13.43
2018-04-19T00:42:28.590Z,13.35
2018-04-19T00:42:32.805Z,13.39
2018-04-19T00:42:37.125Z,13.39
2018-04-19T00:42:41.227Z,13.41
2018-04-19T00:42:45.436Z,13.39
2018-04-19T00:42:49.656Z,13.41
2018-04-19T00:42:53.866Z,13.32
2018-04-19T00:42:58.189Z,13.43
2018-04-19T00:43:02.562Z,13.35
2018-04-19T00:43:06.556Z,13.38
2018-04-19T00:43:10.768Z,13.35
2018-04-19T00:43:14.980Z,13.39
2018-04-19T00:43:19.299Z,13.39
2018-04-19T00:43:23.514Z,13.36
2018-04-19T00:43:27.623Z,13.36
2018-04-19T00:43:31.939Z,13.36
2018-04-19T00:43:36.279Z,13.38
2018-04-19T00:43:40.381Z,13.35
2018-04-19T00:43:44.591Z,13.39
2018-04-19T00:43:48.700Z,13.38
2018-04-19T00:43:52.804Z,13.39
2018-04-19T00:43:57.131Z,13.31
2018-04-19T00:44:01.230Z,13.35
2018-04-19T00:44:05.500Z,13.31
2018-04-19T00:44:09.603Z,13.35
2018-04-19T00:44:13.703Z,13.35
2018-04-19T00:44:18.026Z,13.39
2018-04-19T00:44:22.125Z,13.36
2018-04-19T00:44:26.232Z,13.36
2018-04-19T00:44:30.339Z,13.36
2018-04-19T00:44:34.669Z,13.39
2018-04-19T00:44:38.985Z,13.35
2018-04-19T00:44:43.191Z,13.31
2018-04-19T00:44:47.295Z,13.38
2018-04-19T00:44:51.509Z,13.35
2018-04-19T00:44:55.609Z,13.35
2018-04-19T00:44:59.815Z,13.28
2018-04-19T00:45:03.604Z,13.32
2018-04-19T00:45:07.924Z,13.32
2018-04-19T00:45:12.243Z,13.36
2018-04-19T00:45:16.569Z,13.39
2018-04-19T00:45:20.890Z,13.35
2018-04-19T00:45:25.209Z,13.38
2018-04-19T00:45:29.205Z,13.35
2018-04-19T00:45:33.533Z,13.29
2018-04-19T00:45:37.745Z,13.38
2018-04-19T00:45:41.949Z,13.24
2018-04-19T00:45:46.266Z,13.29
2018-04-19T00:45:50.480Z,13.35
2018-04-19T00:45:54.580Z,13.28
2018-04-19T00:45:58.902Z,13.32
2018-04-19T00:46:02.892Z,13.29
2018-04-19T00:46:06.996Z,13.35
2018-04-19T00:46:11.097Z,13.36
2018-04-19T00:46:15.307Z,13.35
2018-04-19T00:46:19.619Z,13.32
2018-04-19T00:46:23.825Z,13.28
2018-04-19T00:46:28.152Z,13.36
2018-04-19T00:46:32.260Z,13.32
2018-04-19T00:46:36.583Z,13.29
2018-04-19T00:46:40.900Z,13.31
2018-04-19T00:46:45.109Z,13.35
2018-04-19T00:46:49.314Z,13.32
2018-04-19T00:46:53.545Z,13.32
2018-04-19T00:46:57.753Z,13.25
2018-04-19T00:47:01.891Z,13.38
2018-04-19T00:47:06.110Z,13.29
2018-04-19T00:47:10.323Z,13.38
2018-04-19T00:47:14.531Z,13.32
2018-04-19T00:47:18.843Z,13.32
2018-04-19T00:47:23.050Z,13.32
2018-04-19T00:47:27.369Z,13.28
2018-04-19T00:47:31.691Z,13.28
2018-04-19T00:47:35.897Z,13.31
2018-04-19T00:47:40.224Z,13.29
2018-04-19T00:47:44.436Z,13.35
2018-04-19T00:47:48.762Z,13.28
2018-04-19T00:47:52.966Z,13.36
2018-04-19T00:47:57.064Z,13.29
2018-04-19T00:48:01.278Z,13.32
2018-04-19T00:48:05.446Z,13.36
2018-04-19T00:48:09.657Z,13.35
2018-04-19T00:48:13.862Z,13.29
2018-04-19T00:48:18.187Z,13.35
2018-04-19T00:48:22.397Z,13.32
2018-04-19T00:48:26.507Z,13.38
2018-04-19T00:48:30.718Z,13.28
2018-04-19T00:48:34.947Z,13.29
2018-04-19T00:48:39.160Z,13.28
2018-04-19T00:48:43.369Z,13.32
2018-04-19T00:48:47.478Z,13.36
2018-04-19T00:48:51.690Z,13.31
2018-04-19T00:48:55.938Z,13.38
2018-04-19T00:49:00.160Z,13.31
2018-04-19T00:49:04.265Z,13.31
2018-04-19T00:49:08.367Z,13.29
2018-04-19T00:49:12.576Z,13.29
2018-04-19T00:49:16.904Z,13.35
2018-04-19T00:49:21.127Z,13.32
2018-04-19T00:49:25.236Z,13.28
2018-04-19T00:49:29.445Z,13.38
2018-04-19T00:49:33.438Z,13.38
2018-04-19T00:49:37.657Z,13.31
2018-04-19T00:49:41.760Z,13.31
2018-04-19T00:49:46.078Z,13.29
2018-04-19T00:49:50.391Z,13.35
2018-04-19T00:49:54.596Z,13.29
2018-04-19T00:49:58.697Z,13.38
2018-04-19T00:50:02.983Z,13.35
2018-04-19T00:50:07.100Z,13.29
2018-04-19T00:50:11.201Z,13.31
2018-04-19T00:50:15.421Z,13.32
2018-04-19T00:50:19.630Z,13.36
2018-04-19T00:50:23.836Z,13.31
2018-04-19T00:50:28.153Z,13.31
2018-04-19T00:50:32.146Z,13.31
2018-04-19T00:50:36.241Z,13.35
2018-04-19T00:50:40.448Z,13.35
2018-04-19T00:50:44.651Z,13.36
2018-04-19T00:50:48.751Z,13.31
2018-04-19T00:50:52.862Z,13.29
2018-04-19T00:50:57.067Z,13.32
2018-04-19T00:51:01.330Z,13.28
2018-04-19T00:51:05.325Z,13.31
2018-04-19T00:51:09.432Z,13.31
2018-04-19T00:51:13.531Z,13.35
2018-04-19T00:51:17.529Z,13.32
2018-04-19T00:51:21.847Z,13.32
2018-04-19T00:51:26.175Z,13.29
2018-04-19T00:51:30.061Z,13.36
2018-04-19T00:51:34.268Z,13.31
2018-04-19T00:51:38.590Z,13.32
2018-04-19T00:51:42.814Z,13.41
2018-04-19T00:51:47.130Z,13.32
2018-04-19T00:51:51.230Z,13.38
2018-04-19T00:51:55.436Z,13.36
2018-04-19T00:51:59.428Z,13.36
2018-04-19T00:52:03.311Z,13.39
2018-04-19T00:52:07.524Z,13.32
2018-04-19T00:52:11.862Z,13.32
2018-04-19T00:52:16.079Z,13.36
2018-04-19T00:52:20.396Z,13.32
2018-04-19T00:52:24.511Z,13.35
2018-04-19T00:52:28.826Z,13.41
2018-04-19T00:52:33.142Z,13.32
2018-04-19T00:52:37.245Z,13.39
2018-04-19T00:52:41.454Z,13.38
2018-04-19T00:52:45.774Z,13.38
2018-04-19T00:52:49.991Z,13.39
2018-04-19T00:52:54.204Z,13.38
2018-04-19T00:52:58.302Z,13.39
2018-04-19T00:53:02.721Z,13.36
2018-04-19T00:53:06.820Z,13.39
2018-04-19T00:53:10.929Z,13.35
2018-04-19T00:53:15.035Z,13.35
2018-04-19T00:53:19.241Z,13.43
2018-04-19T00:53:23.448Z,13.39
2018-04-19T00:53:27.780Z,13.38
2018-04-19T00:53:31.779Z,13.41
2018-04-19T00:53:35.987Z,13.27
2018-04-19T00:53:40.307Z,13.41
2018-04-19T00:53:44.405Z,13.28
2018-04-19T00:53:48.717Z,13.36
2018-04-19T00:53:53.035Z,13.41
2018-04-19T00:53:57.244Z,13.39
2018-04-19T00:54:01.344Z,13.43